createdAt,value
2018-05-07T00:01:41.168Z,1.60
2018-05-07T00:02:41.177Z,1.80
2018-05-07T00:03:41.217Z,1.80
2018-05-07T00:04:41.252Z,1.50
2018-05-07T00:05:41.278Z,1.60
2018-05-07T00:06:41.318Z,1.60
2018-05-07T00:08:34.858Z,1.50
2018-05-07T00:09:34.947Z,1.70
2018-05-07T00:11:28.428Z,1.50
2018-05-07T00:12:28.451Z,1.60
2018-05-07T00:14:21.998Z,1.60
2018-05-07T00:15:22.021Z,1.60
2018-05-07T00:17:15.567Z,1.80
2018-05-07T00:18:15.590Z,1.60
2018-05-07T00:20:09.216Z,1.80
2018-05-07T00:21:09.160Z,1.70
2018-05-07T00:23:02.711Z,1.70
2018-05-07T00:24:02.732Z,1.50
2018-05-07T00:25:56.283Z,1.70
2018-05-07T00:26:56.305Z,1.60
2018-05-07T00:27:56.335Z,1.40
2018-05-07T00:28:56.371Z,1.60
2018-05-07T00:29:56.403Z,2.00
2018-05-07T00:30:56.439Z,1.50
2018-05-07T00:31:56.472Z,1.70
2018-05-07T00:32:56.507Z,1.60
2018-05-07T00:33:56.541Z,1.60
2018-05-07T00:34:56.597Z,1.60
2018-05-07T00:36:50.118Z,1.40
2018-05-07T00:37:50.139Z,1.70
2018-05-07T00:39:43.685Z,1.30
2018-05-07T00:40:43.707Z,1.50
2018-05-07T00:41:43.739Z,1.50
2018-05-07T00:42:43.776Z,1.60
2018-05-07T00:43:43.811Z,1.50
2018-05-07T00:44:43.845Z,1.50
2018-05-07T00:46:37.388Z,1.60
2018-05-07T00:47:37.420Z,1.40
2018-05-07T00:49:30.963Z,1.50
2018-05-07T00:50:31.030Z,1.40
2018-05-07T00:52:24.527Z,1.50
2018-05-07T00:53:24.552Z,1.60
2018-05-07T00:55:18.097Z,1.60
2018-05-07T00:56:18.118Z,1.50
2018-05-07T00:58:11.668Z,1.50
2018-05-07T00:59:11.690Z,1.60
2018-05-07T01:01:05.236Z,1.50
2018-05-07T01:02:05.260Z,1.80
2018-05-07T01:03:58.808Z,1.50
2018-05-07T01:04:58.830Z,1.60
2018-05-07T01:06:52.380Z,1.40
2018-05-07T01:07:52.400Z,1.70
2018-05-07T01:09:45.965Z,2.00
2018-05-07T01:10:45.977Z,1.50
2018-05-07T01:12:39.601Z,1.50
2018-05-07T01:13:39.543Z,1.60
2018-05-07T01:15:33.091Z,1.50
2018-05-07T01:16:33.112Z,1.60
2018-05-07T01:18:26.661Z,1.60
2018-05-07T01:19:26.687Z,1.50
2018-05-07T01:21:20.231Z,1.40
2018-05-07T01:22:20.253Z,1.70
2018-05-07T01:24:13.802Z,1.70
2018-05-07T01:25:13.825Z,1.50
2018-05-07T01:27:07.373Z,1.40
2018-05-07T01:28:07.394Z,1.50
2018-05-07T01:30:00.944Z,1.40
2018-05-07T01:31:00.965Z,1.80
2018-05-07T01:32:54.514Z,1.60
2018-05-07T01:33:54.534Z,1.40
2018-05-07T01:35:48.086Z,1.40
2018-05-07T01:36:48.105Z,1.60
2018-05-07T01:37:48.139Z,1.60
2018-05-07T01:38:48.176Z,1.60
2018-05-07T01:39:48.207Z,1.40
2018-05-07T01:40:48.242Z,1.50
2018-05-07T01:42:41.788Z,1.40
2018-05-07T01:43:41.809Z,1.60
2018-05-07T01:45:35.358Z,1.50
2018-05-07T01:46:35.378Z,1.60
2018-05-07T01:48:28.935Z,1.50
2018-05-07T01:49:28.952Z,1.40
2018-05-07T01:51:22.497Z,1.50
2018-05-07T01:52:22.518Z,1.40
2018-05-07T01:54:18.523Z,1.40
2018-05-07T01:55:16.088Z,1.50
2018-05-07T01:56:16.141Z,1.40
2018-05-07T01:57:16.158Z,1.60
2018-05-07T01:58:16.197Z,1.50
2018-05-07T01:59:16.229Z,1.40
2018-05-07T02:00:17.002Z,1.50
2018-05-07T02:01:16.298Z,1.60
2018-05-07T02:03:09.784Z,1.40
2018-05-07T02:04:09.807Z,1.40
2018-05-07T02:06:03.353Z,1.50
2018-05-07T02:07:03.376Z,1.70
2018-05-07T02:08:56.922Z,1.50
2018-05-07T02:09:56.946Z,1.70
2018-05-07T02:11:50.495Z,1.50
2018-05-07T02:12:50.516Z,1.50
2018-05-07T02:13:50.550Z,1.50
2018-05-07T02:14:50.584Z,1.50
2018-05-07T02:16:44.079Z,1.30
2018-05-07T02:17:44.099Z,1.60
2018-05-07T02:19:37.654Z,1.40
2018-05-07T02:20:37.677Z,1.40
2018-05-07T02:22:31.229Z,1.60
2018-05-07T02:23:31.241Z,1.40
2018-05-07T02:25:24.790Z,1.40
2018-05-07T02:26:24.813Z,1.50
2018-05-07T02:28:18.362Z,1.50
2018-05-07T02:29:18.382Z,1.50
2018-05-07T02:31:12.043Z,1.40
2018-05-07T02:32:11.955Z,1.50
2018-05-07T02:34:05.504Z,1.50
2018-05-07T02:35:05.531Z,1.50
2018-05-07T02:36:59.074Z,1.40
2018-05-07T02:37:59.100Z,1.40
2018-05-07T02:39:52.643Z,1.40
2018-05-07T02:40:52.665Z,1.40
2018-05-07T02:42:46.220Z,1.60
2018-05-07T02:43:46.234Z,1.60
2018-05-07T02:45:39.783Z,1.60
2018-05-07T02:46:39.806Z,1.50
2018-05-07T02:48:34.287Z,1.50
2018-05-07T02:49:33.375Z,1.30
2018-05-07T02:51:26.925Z,1.40
2018-05-07T02:52:26.950Z,1.80
2018-05-07T02:54:20.496Z,1.50
2018-05-07T02:55:20.518Z,1.40
2018-05-07T02:57:14.071Z,1.50
2018-05-07T02:58:14.094Z,1.50
2018-05-07T03:00:07.636Z,1.40
2018-05-07T03:01:07.658Z,1.40
2018-05-07T03:03:01.206Z,1.50
2018-05-07T03:04:01.228Z,1.40
2018-05-07T03:05:54.778Z,1.40
2018-05-07T03:06:54.797Z,1.50
2018-05-07T03:08:48.345Z,1.40
2018-05-07T03:09:48.370Z,1.30
2018-05-07T03:11:41.918Z,1.20
2018-05-07T03:12:41.941Z,1.50
2018-05-07T03:14:35.487Z,1.40
2018-05-07T03:15:35.516Z,1.60
2018-05-07T03:17:29.112Z,1.40
2018-05-07T03:18:29.086Z,1.40
2018-05-07T03:20:22.629Z,1.40
2018-05-07T03:21:22.649Z,1.60
2018-05-07T03:23:16.197Z,1.30
2018-05-07T03:24:16.220Z,1.30
2018-05-07T03:25:16.254Z,1.50
2018-05-07T03:27:09.779Z,1.40
2018-05-07T03:28:09.798Z,1.30
2018-05-07T03:30:03.354Z,1.50
2018-05-07T03:31:03.375Z,1.40
2018-05-07T03:32:03.407Z,1.30
2018-05-07T03:33:03.441Z,1.40
2018-05-07T03:34:56.932Z,1.20
2018-05-07T03:35:56.952Z,1.40
2018-05-07T03:37:50.502Z,1.50
2018-05-07T03:38:50.524Z,1.40
2018-05-07T03:40:44.072Z,1.50
2018-05-07T03:41:44.094Z,1.50
2018-05-07T03:43:37.646Z,1.40
2018-05-07T03:44:37.666Z,1.50
2018-05-07T03:45:37.699Z,1.40
2018-05-07T03:46:37.735Z,1.30
2018-05-07T03:47:37.770Z,1.40
2018-05-07T03:48:37.855Z,1.40
2018-05-07T03:49:37.835Z,1.50
2018-05-07T03:50:37.870Z,1.50
2018-05-07T03:52:31.357Z,1.40
2018-05-07T03:53:31.381Z,1.40
2018-05-07T03:55:25.388Z,1.50
2018-05-07T03:56:24.955Z,1.40
2018-05-07T03:58:18.537Z,1.40
2018-05-07T03:59:18.524Z,1.50
2018-05-07T04:00:18.556Z,1.50
2018-05-07T04:01:18.593Z,1.50
2018-05-07T04:03:12.100Z,1.60
2018-05-07T04:04:12.109Z,1.40
2018-05-07T04:06:05.646Z,1.50
2018-05-07T04:07:05.602Z,1.60
2018-05-07T04:08:59.079Z,1.50
2018-05-07T04:09:59.102Z,1.80
2018-05-07T04:11:52.570Z,1.60
2018-05-07T04:12:52.597Z,1.40
2018-05-07T04:14:46.109Z,1.50
2018-05-07T04:15:46.095Z,1.30
2018-05-07T04:17:39.571Z,1.50
2018-05-07T04:18:39.598Z,1.60
2018-05-07T04:19:39.630Z,1.40
2018-05-07T04:20:39.666Z,1.60
2018-05-07T04:21:39.700Z,1.40
2018-05-07T04:22:39.731Z,1.60
2018-05-07T04:23:39.769Z,1.60
2018-05-07T04:25:33.272Z,1.70
2018-05-07T04:26:33.262Z,1.70
2018-05-07T04:28:26.741Z,1.30
2018-05-07T04:29:26.763Z,1.70
2018-05-07T04:31:20.273Z,1.50
2018-05-07T04:32:20.298Z,1.60
2018-05-07T04:34:13.780Z,1.50
2018-05-07T04:35:13.801Z,1.40
2018-05-07T04:36:13.844Z,1.80
2018-05-07T04:37:13.861Z,1.40
2018-05-07T04:39:07.431Z,1.60
2018-05-07T04:40:07.455Z,1.60
2018-05-07T04:42:00.924Z,1.70
2018-05-07T04:43:00.950Z,1.60
2018-05-07T04:44:54.428Z,1.60
2018-05-07T04:45:54.446Z,1.60
2018-05-07T04:47:47.918Z,1.60
2018-05-07T04:48:47.977Z,1.60
2018-05-07T04:50:41.424Z,1.60
2018-05-07T04:51:41.468Z,1.70
2018-05-07T04:53:34.987Z,1.60
2018-05-07T04:54:34.938Z,1.70
2018-05-07T04:56:28.405Z,1.50
2018-05-07T04:57:28.425Z,1.60
2018-05-07T04:59:21.907Z,1.60
2018-05-07T05:00:21.939Z,1.40
2018-05-07T05:02:14.965Z,1.90
2018-05-07T05:03:15.001Z,1.60
2018-05-07T05:05:08.541Z,1.70
2018-05-07T05:06:08.560Z,1.40
2018-05-07T05:08:02.113Z,1.40
2018-05-07T05:09:02.134Z,1.60
2018-05-07T05:10:55.684Z,1.60
2018-05-07T05:11:55.701Z,1.50
2018-05-07T05:13:49.254Z,1.90
2018-05-07T05:14:49.275Z,1.50
2018-05-07T05:16:42.824Z,1.80
2018-05-07T05:17:42.842Z,1.60
2018-05-07T05:19:36.394Z,1.60
2018-05-07T05:20:36.414Z,1.70
2018-05-07T05:21:36.453Z,1.60
2018-05-07T05:22:36.485Z,1.70
2018-05-07T05:23:36.518Z,2.10
2018-05-07T05:24:36.544Z,1.50
2018-05-07T05:25:36.593Z,1.50
2018-05-07T05:26:36.621Z,1.70
2018-05-07T05:28:30.109Z,1.40
2018-05-07T05:29:30.135Z,1.60
2018-05-07T05:31:23.681Z,1.80
2018-05-07T05:32:23.703Z,1.50
2018-05-07T05:34:17.250Z,1.80
2018-05-07T05:35:17.272Z,1.90
2018-05-07T05:37:10.871Z,1.40
2018-05-07T05:38:10.914Z,1.50
2018-05-07T05:40:04.392Z,1.80
2018-05-07T05:41:04.415Z,1.50
2018-05-07T05:42:57.961Z,1.70
2018-05-07T05:43:57.984Z,1.60
2018-05-07T05:45:51.531Z,1.90
2018-05-07T05:46:51.566Z,1.60
2018-05-07T05:48:45.105Z,1.70
2018-05-07T05:49:46.053Z,1.60
2018-05-07T05:51:38.688Z,1.40
2018-05-07T05:52:38.697Z,1.90
2018-05-07T05:54:32.247Z,1.70
2018-05-07T05:55:32.269Z,1.60
2018-05-07T05:57:25.813Z,1.70
2018-05-07T05:58:25.839Z,1.50
2018-05-07T06:00:19.584Z,1.40
2018-05-07T06:01:19.408Z,1.60
2018-05-07T06:03:12.956Z,1.80
2018-05-07T06:04:12.974Z,1.50
2018-05-07T06:06:06.526Z,1.60
2018-05-07T06:07:06.549Z,1.70
2018-05-07T06:09:00.183Z,1.60
2018-05-07T06:10:00.124Z,1.90
2018-05-07T06:11:53.711Z,1.40
2018-05-07T06:12:53.759Z,1.60
2018-05-07T06:14:47.399Z,2.20
2018-05-07T06:15:47.263Z,1.90
2018-05-07T06:17:40.811Z,1.90
2018-05-07T06:18:40.833Z,7.60
2018-05-07T06:20:34.378Z,1.90
2018-05-07T06:21:34.394Z,1.70
2018-05-07T06:23:27.880Z,1.90
2018-05-07T06:24:27.903Z,5.30
2018-05-07T06:26:21.372Z,2.50
2018-05-07T06:27:21.435Z,2.50
2018-05-07T06:29:14.876Z,1.80
2018-05-07T06:30:14.899Z,2.00
2018-05-07T06:32:08.377Z,5.40
2018-05-07T06:33:08.396Z,3.20
2018-05-07T06:35:01.923Z,4.00
2018-05-07T06:36:01.948Z,1.80
2018-05-07T06:37:55.424Z,2.40
2018-05-07T06:38:55.447Z,2.30
2018-05-07T06:40:48.927Z,2.60
2018-05-07T06:41:48.950Z,2.70
2018-05-07T06:43:42.433Z,2.00
2018-05-07T06:44:42.453Z,2.30
2018-05-07T06:46:35.933Z,2.50
2018-05-07T06:47:35.955Z,2.40
2018-05-07T06:49:29.436Z,2.40
2018-05-07T06:50:29.460Z,2.40
2018-05-07T06:52:22.938Z,2.50
2018-05-07T06:53:22.963Z,2.40
2018-05-07T06:55:16.450Z,2.50
2018-05-07T06:56:16.465Z,2.40
2018-05-07T06:58:09.943Z,2.50
2018-05-07T06:59:09.966Z,2.60
2018-05-07T07:01:03.453Z,11.20
2018-05-07T07:02:03.478Z,18.90
2018-05-07T07:03:56.478Z,22.70
2018-05-07T07:04:56.500Z,23.40
2018-05-07T07:06:49.979Z,24.40
2018-05-07T07:07:50.002Z,25.90
2018-05-07T07:09:43.482Z,31.90
2018-05-07T07:10:43.504Z,30.10
2018-05-07T07:11:43.538Z,31.40
2018-05-07T07:12:43.574Z,35.90
2018-05-07T07:14:37.045Z,36.20
2018-05-07T07:15:37.065Z,34.90
2018-05-07T07:17:30.594Z,33.10
2018-05-07T07:18:30.614Z,33.80
2018-05-07T07:20:24.097Z,32.80
2018-05-07T07:21:24.121Z,32.80
2018-05-07T07:23:18.127Z,32.50
2018-05-07T07:24:17.622Z,31.90
2018-05-07T07:26:11.105Z,30.90
2018-05-07T07:27:11.124Z,30.30
2018-05-07T07:29:04.607Z,30.50
2018-05-07T07:30:04.627Z,29.80
2018-05-07T07:31:58.139Z,28.20
2018-05-07T07:32:58.164Z,28.00
2018-05-07T07:34:51.645Z,28.40
2018-05-07T07:35:51.665Z,29.20
2018-05-07T07:37:45.145Z,30.00
2018-05-07T07:38:45.168Z,27.60
2018-05-07T07:40:38.648Z,27.50
2018-05-07T07:41:39.643Z,27.60
2018-05-07T07:43:32.140Z,27.80
2018-05-07T07:44:32.161Z,27.70
2018-05-07T07:46:25.638Z,27.80
2018-05-07T07:47:25.658Z,26.50
2018-05-07T07:49:19.135Z,27.10
2018-05-07T07:50:19.159Z,26.60
2018-05-07T07:52:12.628Z,25.80
2018-05-07T07:53:12.654Z,27.30
2018-05-07T07:55:06.138Z,24.90
2018-05-07T07:56:06.155Z,25.50
2018-05-07T07:57:59.711Z,25.70
2018-05-07T07:58:59.660Z,25.30
2018-05-07T08:00:52.648Z,24.10
2018-05-07T08:01:52.671Z,24.00
2018-05-07T08:03:46.157Z,24.40
2018-05-07T08:04:46.175Z,24.90
2018-05-07T08:06:39.655Z,23.70
2018-05-07T08:07:39.689Z,23.70
2018-05-07T08:09:33.160Z,23.80
2018-05-07T08:10:33.180Z,23.90
2018-05-07T08:12:26.710Z,23.90
2018-05-07T08:13:26.685Z,24.10
2018-05-07T08:15:20.157Z,23.90
2018-05-07T08:16:20.179Z,23.00
2018-05-07T08:18:13.658Z,23.00
2018-05-07T08:19:13.681Z,23.40
2018-05-07T08:21:07.163Z,22.90
2018-05-07T08:22:07.182Z,22.90
2018-05-07T08:24:00.666Z,22.20
2018-05-07T08:25:00.689Z,21.90
2018-05-07T08:26:54.175Z,22.60
2018-05-07T08:27:54.191Z,22.50
2018-05-07T08:29:47.681Z,21.80
2018-05-07T08:30:47.703Z,20.90
2018-05-07T08:32:41.185Z,22.00
2018-05-07T08:33:41.208Z,21.40
2018-05-07T08:35:34.685Z,20.80
2018-05-07T08:36:34.708Z,21.00
2018-05-07T08:38:28.189Z,20.80
2018-05-07T08:39:28.210Z,21.20
2018-05-07T08:41:21.691Z,21.10
2018-05-07T08:42:21.761Z,21.40
2018-05-07T08:44:15.192Z,21.30
2018-05-07T08:45:15.215Z,20.40
2018-05-07T08:47:08.696Z,20.30
2018-05-07T08:48:08.718Z,20.10
2018-05-07T08:50:02.199Z,19.70
2018-05-07T08:51:02.227Z,20.20
2018-05-07T08:52:55.796Z,20.80
2018-05-07T08:53:55.775Z,20.30
2018-05-07T08:55:49.214Z,20.00
2018-05-07T08:56:49.235Z,20.60
2018-05-07T08:58:42.709Z,19.60
2018-05-07T08:59:42.734Z,20.40
2018-05-07T09:01:36.215Z,20.70
2018-05-07T09:02:36.234Z,19.80
2018-05-07T09:04:29.705Z,19.90
2018-05-07T09:05:29.728Z,19.70
2018-05-07T09:07:23.206Z,19.60
2018-05-07T09:08:23.233Z,19.40
2018-05-07T09:10:16.714Z,20.00
2018-05-07T09:11:16.732Z,18.80
2018-05-07T09:13:10.212Z,19.90
2018-05-07T09:14:10.234Z,19.30
2018-05-07T09:16:03.716Z,18.80
2018-05-07T09:17:03.884Z,19.80
2018-05-07T09:18:57.218Z,19.20
2018-05-07T09:19:57.240Z,19.30
2018-05-07T09:21:50.721Z,19.50
2018-05-07T09:22:50.742Z,18.40
2018-05-07T09:24:44.259Z,18.80
2018-05-07T09:25:44.251Z,18.50
2018-05-07T09:27:38.252Z,17.90
2018-05-07T09:28:37.753Z,18.60
2018-05-07T09:30:31.218Z,18.30
2018-05-07T09:31:31.287Z,17.90
2018-05-07T09:33:24.808Z,18.40
2018-05-07T09:34:24.818Z,17.60
2018-05-07T09:36:18.226Z,18.00
2018-05-07T09:37:18.247Z,17.80
2018-05-07T09:39:11.727Z,17.20
2018-05-07T09:40:11.753Z,17.80
2018-05-07T09:42:05.357Z,18.10
2018-05-07T09:43:05.353Z,16.70
2018-05-07T09:44:58.733Z,17.80
2018-05-07T09:45:58.756Z,17.80
2018-05-07T09:47:52.234Z,17.30
2018-05-07T09:48:52.342Z,17.80
2018-05-07T09:50:45.738Z,17.00
2018-05-07T09:51:45.759Z,17.30
2018-05-07T09:53:39.240Z,17.30
2018-05-07T09:54:39.265Z,16.90
2018-05-07T09:56:32.743Z,16.80
2018-05-07T09:57:32.765Z,17.00
2018-05-07T09:59:26.322Z,16.60
2018-05-07T10:00:26.266Z,16.80
2018-05-07T10:02:20.400Z,17.00
2018-05-07T10:03:20.085Z,16.90
2018-05-07T10:04:20.120Z,16.20
2018-05-07T10:05:20.158Z,17.00
2018-05-07T10:06:20.190Z,16.80
2018-05-07T10:07:20.223Z,16.30
2018-05-07T10:08:20.257Z,16.00
2018-05-07T10:09:20.291Z,17.20
2018-05-07T10:10:20.327Z,16.70
2018-05-07T10:11:20.359Z,16.80
2018-05-07T10:12:20.394Z,16.50
2018-05-07T10:13:20.428Z,17.30
2018-05-07T10:14:20.464Z,16.70
2018-05-07T10:15:20.498Z,15.90
2018-05-07T10:16:20.532Z,16.30
2018-05-07T10:17:20.572Z,16.60
2018-05-07T10:18:20.603Z,16.70
2018-05-07T10:19:20.635Z,16.00
2018-05-07T10:20:20.669Z,15.70
2018-05-07T10:21:20.709Z,15.70
2018-05-07T10:22:20.740Z,16.70
2018-05-07T10:23:20.774Z,16.10
2018-05-07T10:24:20.807Z,15.50
2018-05-07T10:25:20.840Z,15.20
2018-05-07T10:26:20.877Z,15.80
2018-05-07T10:27:20.908Z,16.00
2018-05-07T10:28:20.947Z,15.40
2018-05-07T10:29:20.981Z,16.00
2018-05-07T10:30:21.013Z,15.50
2018-05-07T10:31:21.047Z,15.90
2018-05-07T10:32:21.080Z,15.70
2018-05-07T10:33:21.122Z,15.90
2018-05-07T10:34:21.150Z,15.70
2018-05-07T10:35:21.271Z,15.50
2018-05-07T10:36:21.221Z,15.30
2018-05-07T10:37:21.253Z,15.20
2018-05-07T10:38:21.289Z,15.70
2018-05-07T10:39:21.322Z,15.00
2018-05-07T10:40:21.355Z,16.00
2018-05-07T10:41:21.391Z,15.00
2018-05-07T10:42:21.426Z,15.40
2018-05-07T10:43:21.458Z,16.00
2018-05-07T10:44:21.494Z,15.10
2018-05-07T10:45:21.528Z,15.60
2018-05-07T10:46:21.563Z,15.30
2018-05-07T10:47:21.605Z,15.10
2018-05-07T10:48:21.634Z,15.40
2018-05-07T10:49:21.664Z,14.80
2018-05-07T10:50:21.701Z,15.20
2018-05-07T10:51:21.737Z,14.90
2018-05-07T10:52:21.771Z,15.60
2018-05-07T10:53:21.801Z,15.40
2018-05-07T10:54:21.836Z,14.90
2018-05-07T10:55:21.870Z,14.90
2018-05-07T10:56:21.904Z,14.60
2018-05-07T10:57:21.939Z,15.00
2018-05-07T10:58:21.974Z,14.70
2018-05-07T10:59:22.011Z,14.50
2018-05-07T11:00:22.043Z,14.90
2018-05-07T11:01:22.076Z,14.70
2018-05-07T11:02:22.114Z,15.20
2018-05-07T11:03:22.145Z,14.80
2018-05-07T11:04:22.178Z,14.20
2018-05-07T11:05:22.215Z,14.80
2018-05-07T11:06:22.253Z,15.10
2018-05-07T11:07:22.310Z,14.50
2018-05-07T11:08:22.316Z,14.00
2018-05-07T11:09:22.350Z,13.80
2018-05-07T11:10:22.387Z,14.60
2018-05-07T11:11:22.419Z,14.10
2018-05-07T11:12:22.470Z,14.70
2018-05-07T11:13:22.487Z,14.60
2018-05-07T11:14:22.526Z,14.30
2018-05-07T11:15:22.558Z,14.70
2018-05-07T11:16:22.591Z,14.00
2018-05-07T11:17:22.627Z,14.50
2018-05-07T11:18:22.662Z,13.50
2018-05-07T11:19:22.693Z,14.30
2018-05-07T11:20:22.728Z,14.80
2018-05-07T11:21:22.764Z,13.80
2018-05-07T11:22:22.799Z,13.30
2018-05-07T11:23:22.833Z,13.20
2018-05-07T11:24:22.865Z,14.00
2018-05-07T11:25:22.900Z,14.20
2018-05-07T11:26:22.936Z,13.80
2018-05-07T11:27:22.968Z,13.40
2018-05-07T11:28:23.005Z,14.20
2018-05-07T11:29:23.039Z,14.40
2018-05-07T11:30:23.072Z,14.00
2018-05-07T11:31:23.107Z,13.90
2018-05-07T11:32:23.140Z,14.00
2018-05-07T11:33:23.177Z,12.70
2018-05-07T11:34:23.210Z,13.80
2018-05-07T11:35:23.243Z,14.20
2018-05-07T11:36:23.277Z,13.10
2018-05-07T11:37:23.311Z,13.80
2018-05-07T11:38:23.350Z,13.40
2018-05-07T11:39:23.386Z,13.70
2018-05-07T11:40:23.414Z,12.60
2018-05-07T11:41:23.449Z,13.70
2018-05-07T11:42:23.480Z,13.20
2018-05-07T11:43:23.518Z,12.80
2018-05-07T11:44:23.556Z,12.80
2018-05-07T11:45:23.587Z,13.30
2018-05-07T11:46:23.625Z,13.60
2018-05-07T11:47:23.711Z,12.50
2018-05-07T11:48:23.689Z,13.10
2018-05-07T11:49:23.726Z,13.00
2018-05-07T11:50:23.762Z,13.00
2018-05-07T11:51:23.792Z,12.80
2018-05-07T11:52:23.827Z,13.10
2018-05-07T11:53:23.861Z,13.10
2018-05-07T11:54:23.898Z,12.80
2018-05-07T11:55:23.930Z,12.90
2018-05-07T11:56:23.965Z,13.30
2018-05-07T11:57:24.000Z,13.20
2018-05-07T11:58:24.035Z,12.90
2018-05-07T11:59:24.068Z,12.90
2018-05-07T12:00:24.106Z,12.40
2018-05-07T12:01:24.136Z,12.90
2018-05-07T12:02:24.181Z,13.00
2018-05-07T12:03:24.206Z,12.40
2018-05-07T12:04:24.245Z,12.50
2018-05-07T12:05:24.285Z,12.40
2018-05-07T12:06:24.309Z,12.00
2018-05-07T12:07:24.342Z,12.50
2018-05-07T12:08:24.381Z,13.20
2018-05-07T12:09:24.412Z,12.90
2018-05-07T12:10:24.449Z,12.20
2018-05-07T12:11:24.480Z,13.30
2018-05-07T12:12:24.515Z,13.00
2018-05-07T12:13:24.554Z,12.80
2018-05-07T12:14:24.583Z,12.70
2018-05-07T12:15:24.618Z,12.60
2018-05-07T12:16:24.666Z,12.30
2018-05-07T12:17:24.687Z,12.70
2018-05-07T12:18:24.725Z,12.30
2018-05-07T12:19:24.755Z,12.10
2018-05-07T12:20:24.793Z,12.50
2018-05-07T12:21:24.832Z,12.60
2018-05-07T12:22:24.865Z,12.40
2018-05-07T12:23:24.893Z,12.40
2018-05-07T12:24:24.930Z,12.10
2018-05-07T12:25:24.962Z,12.10
2018-05-07T12:26:24.997Z,12.60
2018-05-07T12:27:25.030Z,11.60
2018-05-07T12:28:25.065Z,11.30
2018-05-07T12:29:25.145Z,11.50
2018-05-07T12:30:25.134Z,11.90
2018-05-07T12:31:25.186Z,11.20
2018-05-07T12:32:25.205Z,11.40
2018-05-07T12:33:25.232Z,11.60
2018-05-07T12:36:50.915Z,11.90
2018-05-07T12:37:50.949Z,11.90
2018-05-07T12:39:44.958Z,10.90
2018-05-07T12:40:44.519Z,11.30
2018-05-07T12:42:38.074Z,11.40
2018-05-07T12:43:38.091Z,10.40
2018-05-07T12:45:31.638Z,11.60
2018-05-07T12:46:31.660Z,11.70
2018-05-07T12:48:25.208Z,11.50
2018-05-07T12:49:25.233Z,10.80
2018-05-07T12:51:18.779Z,10.70
2018-05-07T12:52:18.801Z,11.20
2018-05-07T12:54:12.349Z,10.80
2018-05-07T12:55:12.380Z,10.60
2018-05-07T12:57:05.920Z,10.50
2018-05-07T12:58:05.947Z,10.80
2018-05-07T12:59:59.492Z,11.20
2018-05-07T13:00:59.513Z,10.70
2018-05-07T13:02:53.182Z,10.60
2018-05-07T13:03:53.098Z,10.60
2018-05-07T13:05:47.120Z,10.40
2018-05-07T13:06:46.659Z,10.60
2018-05-07T13:08:40.287Z,11.10
2018-05-07T13:09:40.265Z,11.10
2018-05-07T13:11:33.804Z,10.50
2018-05-07T13:12:33.830Z,10.80
2018-05-07T13:14:27.427Z,10.90
2018-05-07T13:15:27.402Z,10.60
2018-05-07T13:17:20.991Z,10.30
2018-05-07T13:18:20.939Z,10.60
2018-05-07T13:20:14.568Z,10.40
2018-05-07T13:21:14.559Z,10.30
2018-05-07T13:23:08.115Z,10.70
2018-05-07T13:24:08.160Z,10.30
2018-05-07T13:26:01.676Z,10.60
2018-05-07T13:27:01.683Z,10.30
2018-05-07T13:28:01.682Z,9.90
2018-05-07T13:29:01.721Z,10.20
2018-05-07T13:30:01.758Z,10.70
2018-05-07T13:31:55.318Z,10.70
2018-05-07T13:32:55.341Z,10.70
2018-05-07T13:34:48.889Z,10.00
2018-05-07T13:35:48.986Z,9.40
2018-05-07T13:37:42.459Z,10.60
2018-05-07T13:38:42.486Z,10.10
2018-05-07T13:40:36.124Z,10.30
2018-05-07T13:41:36.054Z,9.70
2018-05-07T13:43:29.601Z,10.60
2018-05-07T13:44:29.623Z,10.30
2018-05-07T13:46:23.170Z,9.60
2018-05-07T13:47:23.193Z,10.10
2018-05-07T13:49:16.741Z,9.30
2018-05-07T13:50:16.765Z,9.60
2018-05-07T13:52:10.311Z,9.90
2018-05-07T13:53:10.336Z,9.20
2018-05-07T13:55:03.882Z,9.40
2018-05-07T13:56:03.908Z,9.40
2018-05-07T13:57:57.452Z,9.70
2018-05-07T13:58:57.476Z,10.00
2018-05-07T14:00:51.509Z,8.70
2018-05-07T14:01:51.079Z,9.60
2018-05-07T14:03:44.635Z,10.10
2018-05-07T14:04:44.628Z,9.60
2018-05-07T14:06:38.171Z,9.50
2018-05-07T14:07:38.193Z,9.60
2018-05-07T14:08:38.308Z,9.80
2018-05-07T14:09:38.275Z,9.40
2018-05-07T14:10:38.306Z,9.70
2018-05-07T14:11:38.344Z,9.40
2018-05-07T14:12:38.362Z,9.70
2018-05-07T14:13:38.400Z,9.00
2018-05-07T14:14:38.450Z,9.10
2018-05-07T14:15:38.487Z,9.40
2018-05-07T14:16:38.508Z,8.50
2018-05-07T14:17:38.540Z,9.20
2018-05-07T14:18:38.578Z,9.00
2018-05-07T14:19:38.601Z,8.50
2018-05-07T14:20:38.643Z,9.10
2018-05-07T14:21:38.674Z,8.90
2018-05-07T14:22:38.706Z,9.00
2018-05-07T14:23:38.747Z,9.50
2018-05-07T14:24:38.774Z,11.70
2018-05-07T14:25:38.810Z,15.20
2018-05-07T14:26:38.843Z,16.50
2018-05-07T14:27:38.878Z,14.90
2018-05-07T14:28:38.913Z,14.30
2018-05-07T14:29:38.948Z,12.50
2018-05-07T14:30:38.983Z,13.30
2018-05-07T14:31:39.015Z,12.80
2018-05-07T14:32:39.051Z,12.80
2018-05-07T14:33:39.090Z,13.40
2018-05-07T14:34:39.124Z,13.00
2018-05-07T14:35:39.167Z,12.40
2018-05-07T14:36:39.192Z,12.70
2018-05-07T14:37:39.225Z,12.40
2018-05-07T14:38:39.263Z,12.10
2018-05-07T14:39:39.296Z,12.40
2018-05-07T14:40:39.332Z,11.90
2018-05-07T14:41:39.360Z,12.00
2018-05-07T14:42:39.397Z,11.70
2018-05-07T14:43:39.434Z,11.40
2018-05-07T14:44:39.468Z,11.10
2018-05-07T14:45:39.502Z,12.30
2018-05-07T14:46:39.542Z,11.00
2018-05-07T14:47:39.572Z,11.60
2018-05-07T14:48:39.607Z,11.60
2018-05-07T14:49:39.643Z,11.30
2018-05-07T14:50:39.674Z,11.30
2018-05-07T14:51:39.711Z,11.10
2018-05-07T14:52:39.747Z,11.40
2018-05-07T14:53:39.778Z,10.50
2018-05-07T14:54:39.817Z,11.60
2018-05-07T14:55:39.851Z,11.10
2018-05-07T14:56:39.889Z,10.70
2018-05-07T14:57:39.919Z,11.00
2018-05-07T14:58:39.990Z,10.90
2018-05-07T14:59:39.989Z,10.60
2018-05-07T15:00:40.023Z,10.90
2018-05-07T15:01:40.061Z,10.20
2018-05-07T15:02:40.090Z,10.60
2018-05-07T15:03:40.127Z,10.80
2018-05-07T15:04:40.162Z,10.00
2018-05-07T15:05:40.217Z,10.50
2018-05-07T15:06:40.230Z,10.40
2018-05-07T15:07:40.264Z,10.30
2018-05-07T15:08:40.298Z,10.20
2018-05-07T15:09:40.333Z,9.70
2018-05-07T15:10:40.368Z,10.20
2018-05-07T15:11:40.453Z,10.20
2018-05-07T15:12:40.432Z,10.10
2018-05-07T15:13:40.477Z,9.50
2018-05-07T15:14:40.507Z,9.70
2018-05-07T15:15:40.625Z,9.90
2018-05-07T15:16:40.584Z,9.50
2018-05-07T15:17:40.611Z,10.00
2018-05-07T15:18:40.649Z,10.10
2018-05-07T15:19:40.679Z,9.50
2018-05-07T15:20:40.722Z,10.20
2018-05-07T15:21:40.749Z,9.70
2018-05-07T15:22:40.781Z,10.00
2018-05-07T15:23:40.817Z,10.00
2018-05-07T15:24:40.854Z,9.30
2018-05-07T15:25:40.888Z,9.70
2018-05-07T15:26:40.923Z,8.80
2018-05-07T15:27:40.955Z,9.40
2018-05-07T15:28:40.991Z,9.50
2018-05-07T15:29:41.047Z,9.90
2018-05-07T15:30:41.060Z,9.70
2018-05-07T15:31:41.099Z,9.10
2018-05-07T15:32:41.129Z,9.50
2018-05-07T15:33:41.164Z,9.40
2018-05-07T15:34:41.198Z,9.70
2018-05-07T15:35:41.234Z,9.50
2018-05-07T15:36:41.268Z,9.80
2018-05-07T15:37:41.305Z,9.40
2018-05-07T15:38:41.337Z,9.20
2018-05-07T15:39:41.377Z,8.80
2018-05-07T15:40:41.407Z,9.50
2018-05-07T15:41:41.441Z,8.90
2018-05-07T15:42:41.495Z,9.30
2018-05-07T15:43:41.567Z,9.00
2018-05-07T15:44:41.550Z,9.00
2018-05-07T15:45:41.579Z,9.20
2018-05-07T15:46:41.622Z,9.20
2018-05-07T15:47:41.649Z,8.70
2018-05-07T15:48:41.686Z,9.40
2018-05-07T15:49:41.796Z,8.80
2018-05-07T15:50:41.878Z,8.80
2018-05-07T15:51:41.784Z,8.70
2018-05-07T15:52:41.823Z,9.20
2018-05-07T15:53:41.936Z,8.40
2018-05-07T15:54:41.933Z,8.30
2018-05-07T15:55:41.925Z,8.50
2018-05-07T15:56:41.956Z,8.50
2018-05-07T15:57:41.996Z,8.40
2018-05-07T15:58:42.039Z,9.10
2018-05-07T15:59:42.064Z,9.40
2018-05-07T16:00:42.102Z,9.50
2018-05-07T16:01:42.136Z,8.20
2018-05-07T16:02:42.233Z,8.80
2018-05-07T16:03:42.204Z,8.80
2018-05-07T16:04:42.239Z,9.00
2018-05-07T16:05:42.356Z,8.40
2018-05-07T16:06:42.308Z,8.30
2018-05-07T16:10:07.927Z,8.80
2018-05-07T16:11:07.947Z,8.00
2018-05-07T16:13:01.434Z,8.90
2018-05-07T16:14:01.463Z,8.80
2018-05-07T16:15:54.929Z,8.70
2018-05-07T16:16:54.964Z,8.00
2018-05-07T16:18:48.457Z,8.60
2018-05-07T16:19:48.454Z,8.10
2018-05-07T16:21:41.931Z,8.20
2018-05-07T16:22:41.942Z,8.30
2018-05-07T16:24:35.414Z,8.40
2018-05-07T16:25:35.442Z,8.30
2018-05-07T16:27:28.902Z,8.30
2018-05-07T16:28:28.936Z,7.70
2018-05-07T16:30:21.908Z,8.00
2018-05-07T16:31:21.993Z,8.00
2018-05-07T16:33:15.398Z,8.10
2018-05-07T16:34:15.423Z,7.80